sensor_id;sensor_type;location;lat;lon;timestamp;temperature;humidity
16243;DHT22;11719;51.052;6.982;2022-12-18T00:02:00;0.40;99.90
16243;DHT22;11719;51.052;6.982;2022-12-18T00:04:27;0.40;99.90
16243;DHT22;11719;51.052;6.982;2022-12-18T00:06:53;0.30;99.90
16243;DHT22;11719;51.052;6.982;2022-12-18T00:09:20;0.30;99.90
16243;DHT22;11719;51.052;6.982;2022-12-18T00:11:46;0.30;99.90
16243;DHT22;11719;51.052;6.982;2022-12-18T00:14:12;0.30;99.90
16243;DHT22;11719;51.052;6.982;2022-12-18T00:16:39;0.40;99.90
16243;DHT22;11719;51.052;6.982;2022-12-18T00:19:06;0.40;99.90
16243;DHT22;11719;51.052;6.982;2022-12-18T00:21:33;0.40;99.90
16243;DHT22;11719;51.052;6.982;2022-12-18T00:23:59;0.40;99.90
16243;DHT22;11719;51.052;6.982;2022-12-18T00:26:28;0.50;99.90
16243;DHT22;11719;51.052;6.982;2022-12-18T00:28:58;0.50;99.90
16243;DHT22;11719;51.052;6.982;2022-12-18T00:31:26;0.70;99.90
16243;DHT22;11719;51.052;6.982;2022-12-18T00:33:54;0.90;99.90
16243;DHT22;11719;51.052;6.982;2022-12-18T00:36:24;1.00;99.90
16243;DHT22;11719;51.052;6.982;2022-12-18T00:38:55;1.10;99.90
16243;DHT22;11719;51.052;6.982;2022-12-18T00:41:23;1.20;99.90
16243;DHT22;11719;51.052;6.982;2022-12-18T00:44:11;1.10;99.90
16243;DHT22;11719;51.052;6.982;2022-12-18T00:46:38;1.10;99.90
16243;DHT22;11719;51.052;6.982;2022-12-18T00:49:04;1.00;99.90
16243;DHT22;11719;51.052;6.982;2022-12-18T00:51:30;1.00;99.90
16243;DHT22;11719;51.052;6.982;2022-12-18T00:53:56;1.00;99.90
16243;DHT22;11719;51.052;6.982;2022-12-18T00:56:22;0.80;99.90
16243;DHT22;11719;51.052;6.982;2022-12-18T00:58:48;0.80;99.90
16243;DHT22;11719;51.052;6.982;2022-12-18T01:01:14;0.70;99.90
16243;DHT22;11719;51.052;6.982;2022-12-18T01:03:40;0.70;99.90
16243;DHT22;11719;51.052;6.982;2022-12-18T01:06:10;0.70;99.90
16243;DHT22;11719;51.052;6.982;2022-12-18T01:08:37;0.80;99.90
16243;DHT22;11719;51.052;6.982;2022-12-18T01:11:29;0.70;99.90
16243;DHT22;11719;51.052;6.982;2022-12-18T01:13:55;0.70;99.90
16243;DHT22;11719;51.052;6.982;2022-12-18T01:16:24;0.70;99.90
16243;DHT22;11719;51.052;6.982;2022-12-18T01:18:54;0.70;99.90
16243;DHT22;11719;51.052;6.982;2022-12-18T01:21:21;0.70;99.90
16243;DHT22;11719;51.052;6.982;2022-12-18T01:23:51;0.70;99.90
16243;DHT22;11719;51.052;6.982;2022-12-18T01:26:20;0.80;99.90
16243;DHT22;11719;51.052;6.982;2022-12-18T01:28:46;0.80;99.90
16243;DHT22;11719;51.052;6.982;2022-12-18T01:31:19;0.80;99.90
16243;DHT22;11719;51.052;6.982;2022-12-18T01:33:45;0.80;99.90
16243;DHT22;11719;51.052;6.982;2022-12-18T01:36:29;0.80;99.90
16243;DHT22;11719;51.052;6.982;2022-12-18T01:38:58;0.80;99.90
16243;DHT22;11719;51.052;6.982;2022-12-18T01:41:36;0.80;99.90
16243;DHT22;11719;51.052;6.982;2022-12-18T01:47:27;0.80;99.90
16243;DHT22;11719;51.052;6.982;2022-12-18T01:49:54;0.80;99.90
16243;DHT22;11719;51.052;6.982;2022-12-18T01:52:22;0.90;99.90
16243;DHT22;11719;51.052;6.982;2022-12-18T01:54:51;0.80;99.90
16243;DHT22;11719;51.052;6.982;2022-12-18T01:57:17;0.80;99.90
16243;DHT22;11719;51.052;6.982;2022-12-18T01:59:45;0.90;99.90
16243;DHT22;11719;51.052;6.982;2022-12-18T02:02:16;0.90;99.90
16243;DHT22;11719;51.052;6.982;2022-12-18T02:04:42;0.80;99.90
16243;DHT22;11719;51.052;6.982;2022-12-18T02:07:42;0.80;99.90
16243;DHT22;11719;51.052;6.982;2022-12-18T02:10:25;0.80;99.90
16243;DHT22;11719;51.052;6.982;2022-12-18T02:15:51;0.70;99.90
16243;DHT22;11719;51.052;6.982;2022-12-18T02:18:36;0.60;99.90
16243;DHT22;11719;51.052;6.982;2022-12-18T02:26:59;0.50;99.90
16243;DHT22;11719;51.052;6.982;2022-12-18T02:29:41;0.40;99.90
16243;DHT22;11719;51.052;6.982;2022-12-18T02:32:16;0.30;99.90
16243;DHT22;11719;51.052;6.982;2022-12-18T02:34:46;0.20;99.90
16243;DHT22;11719;51.052;6.982;2022-12-18T02:37:14;0.20;99.90
16243;DHT22;11719;51.052;6.982;2022-12-18T02:39:43;0.20;99.90
16243;DHT22;11719;51.052;6.982;2022-12-18T02:42:10;0.20;99.90
16243;DHT22;11719;51.052;6.982;2022-12-18T02:44:48;0.20;99.90
16243;DHT22;11719;51.052;6.982;2022-12-18T02:47:18;0.10;99.90
16243;DHT22;11719;51.052;6.982;2022-12-18T02:56:28;-0.10;99.90
16243;DHT22;11719;51.052;6.982;2022-12-18T02:59:13;-0.20;99.90
16243;DHT22;11719;51.052;6.982;2022-12-18T03:01:58;-0.10;99.90
16243;DHT22;11719;51.052;6.982;2022-12-18T03:04:47;-0.10;99.90
16243;DHT22;11719;51.052;6.982;2022-12-18T03:07:23;-0.20;99.90
16243;DHT22;11719;51.052;6.982;2022-12-18T03:09:54;-0.20;99.90
16243;DHT22;11719;51.052;6.982;2022-12-18T03:12:28;-0.30;99.90
16243;DHT22;11719;51.052;6.982;2022-12-18T03:15:22;-0.30;99.90
16243;DHT22;11719;51.052;6.982;2022-12-18T03:18:03;-0.30;99.90
16243;DHT22;11719;51.052;6.982;2022-12-18T03:20:33;-0.30;99.90
16243;DHT22;11719;51.052;6.982;2022-12-18T03:23:06;-0.30;99.90
16243;DHT22;11719;51.052;6.982;2022-12-18T03:25:40;-0.40;99.90
16243;DHT22;11719;51.052;6.982;2022-12-18T03:28:15;-0.30;99.90
16243;DHT22;11719;51.052;6.982;2022-12-18T03:30:47;-0.40;99.90
16243;DHT22;11719;51.052;6.982;2022-12-18T03:33:19;-0.40;99.90
16243;DHT22;11719;51.052;6.982;2022-12-18T03:35:50;-0.40;99.90
16243;DHT22;11719;51.052;6.982;2022-12-18T03:38:16;-0.40;99.90
16243;DHT22;11719;51.052;6.982;2022-12-18T03:49:14;-0.40;99.90
16243;DHT22;11719;51.052;6.982;2022-12-18T03:52:20;-0.40;99.90
16243;DHT22;11719;51.052;6.982;2022-12-18T03:54:50;-0.40;99.90
16243;DHT22;11719;51.052;6.982;2022-12-18T03:57:24;-0.40;99.90
16243;DHT22;11719;51.052;6.982;2022-12-18T04:00:13;-0.50;99.90
16243;DHT22;11719;51.052;6.982;2022-12-18T04:02:53;-0.60;99.90
16243;DHT22;11719;51.052;6.982;2022-12-18T04:05:20;-0.60;99.90
16243;DHT22;11719;51.052;6.982;2022-12-18T04:07:48;-0.50;99.90
16243;DHT22;11719;51.052;6.982;2022-12-18T04:10:16;-0.50;99.90
16243;DHT22;11719;51.052;6.982;2022-12-18T04:12:42;-0.40;99.90
16243;DHT22;11719;51.052;6.982;2022-12-18T04:15:09;-0.50;99.90
16243;DHT22;11719;51.052;6.982;2022-12-18T04:17:36;-0.50;99.90
16243;DHT22;11719;51.052;6.982;2022-12-18T04:20:02;-0.50;99.90
16243;DHT22;11719;51.052;6.982;2022-12-18T04:22:28;-0.60;99.90
16243;DHT22;11719;51.052;6.982;2022-12-18T04:24:54;-0.60;99.90
16243;DHT22;11719;51.052;6.982;2022-12-18T04:27:19;-0.60;99.90
16243;DHT22;11719;51.052;6.982;2022-12-18T04:29:45;-0.60;99.90
16243;DHT22;11719;51.052;6.982;2022-12-18T04:32:11;-0.60;99.90
16243;DHT22;11719;51.052;6.982;2022-12-18T04:34:37;-0.70;99.90
16243;DHT22;11719;51.052;6.982;2022-12-18T04:37:03;-0.60;99.90
16243;DHT22;11719;51.052;6.982;2022-12-18T04:39:29;-0.60;99.90
16243;DHT22;11719;51.052;6.982;2022-12-18T04:41:54;-0.60;99.90
16243;DHT22;11719;51.052;6.982;2022-12-18T04:44:20;-0.70;99.90
16243;DHT22;11719;51.052;6.982;2022-12-18T04:46:46;-0.70;99.90
16243;DHT22;11719;51.052;6.982;2022-12-18T04:49:12;-0.70;99.90
16243;DHT22;11719;51.052;6.982;2022-12-18T04:51:38;-0.70;99.90
16243;DHT22;11719;51.052;6.982;2022-12-18T04:54:04;-0.70;99.90
16243;DHT22;11719;51.052;6.982;2022-12-18T04:56:31;-0.70;99.90
16243;DHT22;11719;51.052;6.982;2022-12-18T04:58:57;-0.80;99.90
16243;DHT22;11719;51.052;6.982;2022-12-18T05:01:23;-0.70;99.90
16243;DHT22;11719;51.052;6.982;2022-12-18T05:03:51;-0.70;99.90
16243;DHT22;11719;51.052;6.982;2022-12-18T05:06:17;-0.60;99.90
16243;DHT22;11719;51.052;6.982;2022-12-18T05:08:43;-0.60;99.90
16243;DHT22;11719;51.052;6.982;2022-12-18T05:11:11;-0.60;99.90
16243;DHT22;11719;51.052;6.982;2022-12-18T05:13:42;-0.60;99.90
16243;DHT22;11719;51.052;6.982;2022-12-18T05:16:09;-0.50;99.90
16243;DHT22;11719;51.052;6.982;2022-12-18T05:18:36;-0.50;99.90
16243;DHT22;11719;51.052;6.982;2022-12-18T05:21:02;-0.50;99.90
16243;DHT22;11719;51.052;6.982;2022-12-18T05:23:28;-0.50;99.90
16243;DHT22;11719;51.052;6.982;2022-12-18T05:25:59;-0.50;99.90
16243;DHT22;11719;51.052;6.982;2022-12-18T05:28:28;-0.50;99.90
16243;DHT22;11719;51.052;6.982;2022-12-18T05:30:57;-0.50;99.90
16243;DHT22;11719;51.052;6.982;2022-12-18T05:33:25;-0.50;99.90
16243;DHT22;11719;51.052;6.982;2022-12-18T05:35:53;-0.60;99.90
16243;DHT22;11719;51.052;6.982;2022-12-18T05:38:21;-0.50;99.90
16243;DHT22;11719;51.052;6.982;2022-12-18T05:40:51;-0.50;99.90
16243;DHT22;11719;51.052;6.982;2022-12-18T05:43:19;-0.50;99.90
16243;DHT22;11719;51.052;6.982;2022-12-18T05:45:50;-0.60;99.90
16243;DHT22;11719;51.052;6.982;2022-12-18T05:48:16;-0.60;99.90
16243;DHT22;11719;51.052;6.982;2022-12-18T05:50:44;-0.60;99.90
16243;DHT22;11719;51.052;6.982;2022-12-18T05:53:11;-0.60;99.90
16243;DHT22;11719;51.052;6.982;2022-12-18T05:55:39;-0.70;99.90
16243;DHT22;11719;51.052;6.982;2022-12-18T05:58:07;-0.70;99.90
16243;DHT22;11719;51.052;6.982;2022-12-18T06:00:36;-0.70;99.90
16243;DHT22;11719;51.052;6.982;2022-12-18T06:03:06;-0.70;99.90
16243;DHT22;11719;51.052;6.982;2022-12-18T06:05:40;-0.70;99.90
16243;DHT22;11719;51.052;6.982;2022-12-18T06:08:07;-0.60;99.90
16243;DHT22;11719;51.052;6.982;2022-12-18T06:10:33;-0.70;99.90
16243;DHT22;11719;51.052;6.982;2022-12-18T06:13:00;-0.70;99.90
16243;DHT22;11719;51.052;6.982;2022-12-18T06:15:26;-0.70;99.90
16243;DHT22;11719;51.052;6.982;2022-12-18T06:17:52;-0.70;99.90
16243;DHT22;11719;51.052;6.982;2022-12-18T06:20:18;-0.60;99.90
16243;DHT22;11719;51.052;6.982;2022-12-18T06:22:44;-0.70;99.90
16243;DHT22;11719;51.052;6.982;2022-12-18T06:25:10;-0.70;99.90
16243;DHT22;11719;51.052;6.982;2022-12-18T06:27:36;-0.70;99.90
16243;DHT22;11719;51.052;6.982;2022-12-18T06:30:02;-0.70;99.90
16243;DHT22;11719;51.052;6.982;2022-12-18T06:32:30;-0.70;99.90
16243;DHT22;11719;51.052;6.982;2022-12-18T06:34:56;-0.60;99.90
16243;DHT22;11719;51.052;6.982;2022-12-18T06:37:22;-0.60;99.90
16243;DHT22;11719;51.052;6.982;2022-12-18T06:39:52;-0.60;99.90
16243;DHT22;11719;51.052;6.982;2022-12-18T06:42:21;-0.60;99.90
16243;DHT22;11719;51.052;6.982;2022-12-18T06:44:47;-0.60;99.90
16243;DHT22;11719;51.052;6.982;2022-12-18T06:47:13;-0.60;99.90
16243;DHT22;11719;51.052;6.982;2022-12-18T06:49:39;-0.60;99.90
16243;DHT22;11719;51.052;6.982;2022-12-18T06:52:05;-0.60;99.90
16243;DHT22;11719;51.052;6.982;2022-12-18T06:54:31;-0.70;99.90
16243;DHT22;11719;51.052;6.982;2022-12-18T06:56:57;-0.70;99.90
16243;DHT22;11719;51.052;6.982;2022-12-18T06:59:22;-0.70;99.90
16243;DHT22;11719;51.052;6.982;2022-12-18T07:01:48;-0.70;99.90
16243;DHT22;11719;51.052;6.982;2022-12-18T07:04:14;-0.70;99.90
16243;DHT22;11719;51.052;6.982;2022-12-18T07:06:40;-0.60;99.90
16243;DHT22;11719;51.052;6.982;2022-12-18T07:09:05;-0.60;99.90
16243;DHT22;11719;51.052;6.982;2022-12-18T07:11:34;-0.50;99.90
16243;DHT22;11719;51.052;6.982;2022-12-18T07:14:00;-0.50;99.90
16243;DHT22;11719;51.052;6.982;2022-12-18T07:16:26;-0.50;99.90
16243;DHT22;11719;51.052;6.982;2022-12-18T07:18:55;-0.40;99.90
16243;DHT22;11719;51.052;6.982;2022-12-18T07:21:22;-0.40;99.90
16243;DHT22;11719;51.052;6.982;2022-12-18T07:23:49;-0.30;99.90
16243;DHT22;11719;51.052;6.982;2022-12-18T07:26:17;-0.30;99.90
16243;DHT22;11719;51.052;6.982;2022-12-18T07:28:45;-0.20;99.90
16243;DHT22;11719;51.052;6.982;2022-12-18T07:31:17;-0.30;99.90
16243;DHT22;11719;51.052;6.982;2022-12-18T07:33:45;-0.20;99.90
16243;DHT22;11719;51.052;6.982;2022-12-18T07:36:11;-0.20;99.90
16243;DHT22;11719;51.052;6.982;2022-12-18T07:38:37;-0.10;99.90
16243;DHT22;11719;51.052;6.982;2022-12-18T07:41:09;0.00;99.90
16243;DHT22;11719;51.052;6.982;2022-12-18T07:43:37;-0.10;99.90
16243;DHT22;11719;51.052;6.982;2022-12-18T07:46:04;-0.10;99.90
16243;DHT22;11719;51.052;6.982;2022-12-18T07:48:31;-0.10;99.90
16243;DHT22;11719;51.052;6.982;2022-12-18T07:51:02;-0.10;99.90
16243;DHT22;11719;51.052;6.982;2022-12-18T07:53:29;-0.10;99.90
16243;DHT22;11719;51.052;6.982;2022-12-18T07:56:03;-0.20;99.90
16243;DHT22;11719;51.052;6.982;2022-12-18T07:58:32;-0.20;99.90
16243;DHT22;11719;51.052;6.982;2022-12-18T08:01:06;-0.20;99.90
16243;DHT22;11719;51.052;6.982;2022-12-18T08:03:34;-0.20;99.90
16243;DHT22;11719;51.052;6.982;2022-12-18T08:06:04;-0.30;99.90
16243;DHT22;11719;51.052;6.982;2022-12-18T08:08:32;-0.30;99.90
16243;DHT22;11719;51.052;6.982;2022-12-18T08:10:58;-0.40;99.90
16243;DHT22;11719;51.052;6.982;2022-12-18T08:13:24;-0.40;99.90
16243;DHT22;11719;51.052;6.982;2022-12-18T08:16:02;-0.30;99.90
16243;DHT22;11719;51.052;6.982;2022-12-18T08:18:36;-0.20;99.90
16243;DHT22;11719;51.052;6.982;2022-12-18T08:23:42;0.00;99.90
16243;DHT22;11719;51.052;6.982;2022-12-18T08:26:09;0.10;99.90
16243;DHT22;11719;51.052;6.982;2022-12-18T08:28:35;0.10;99.90
16243;DHT22;11719;51.052;6.982;2022-12-18T08:31:01;0.30;99.90
16243;DHT22;11719;51.052;6.982;2022-12-18T08:33:27;0.50;99.90
16243;DHT22;11719;51.052;6.982;2022-12-18T08:35:53;0.70;99.90
16243;DHT22;11719;51.052;6.982;2022-12-18T08:38:19;0.80;99.90
16243;DHT22;11719;51.052;6.982;2022-12-18T08:40:45;0.80;99.90
16243;DHT22;11719;51.052;6.982;2022-12-18T08:43:11;0.90;99.90
16243;DHT22;11719;51.052;6.982;2022-12-18T08:45:57;0.90;99.90
16243;DHT22;11719;51.052;6.982;2022-12-18T08:48:23;0.80;99.90
16243;DHT22;11719;51.052;6.982;2022-12-18T08:50:56;0.90;99.90
16243;DHT22;11719;51.052;6.982;2022-12-18T08:53:27;0.90;99.90
16243;DHT22;11719;51.052;6.982;2022-12-18T08:55:53;0.90;99.90
16243;DHT22;11719;51.052;6.982;2022-12-18T08:58:19;0.90;99.90
16243;DHT22;11719;51.052;6.982;2022-12-18T09:00:45;0.90;99.90
16243;DHT22;11719;51.052;6.982;2022-12-18T09:03:18;1.20;99.90
16243;DHT22;11719;51.052;6.982;2022-12-18T09:05:45;1.40;99.90
16243;DHT22;11719;51.052;6.982;2022-12-18T09:08:12;1.40;99.90
16243;DHT22;11719;51.052;6.982;2022-12-18T09:10:43;1.50;99.90
16243;DHT22;11719;51.052;6.982;2022-12-18T09:13:10;1.60;99.90
16243;DHT22;11719;51.052;6.982;2022-12-18T09:15:41;1.50;99.90
16243;DHT22;11719;51.052;6.982;2022-12-18T09:18:08;1.40;99.90
16243;DHT22;11719;51.052;6.982;2022-12-18T09:20:35;1.50;99.90
16243;DHT22;11719;51.052;6.982;2022-12-18T09:23:02;1.40;99.90
16243;DHT22;11719;51.052;6.982;2022-12-18T09:25:31;1.40;99.90
16243;DHT22;11719;51.052;6.982;2022-12-18T09:28:16;1.30;99.90
16243;DHT22;11719;51.052;6.982;2022-12-18T09:30:48;1.30;99.90
16243;DHT22;11719;51.052;6.982;2022-12-18T09:33:15;1.40;99.90
16243;DHT22;11719;51.052;6.982;2022-12-18T09:35:43;1.50;99.90
16243;DHT22;11719;51.052;6.982;2022-12-18T09:38:14;1.50;99.90
16243;DHT22;11719;51.052;6.982;2022-12-18T09:40:50;1.60;99.90
16243;DHT22;11719;51.052;6.982;2022-12-18T09:43:21;1.70;99.90
16243;DHT22;11719;51.052;6.982;2022-12-18T09:45:54;1.90;99.90
16243;DHT22;11719;51.052;6.982;2022-12-18T09:48:49;2.00;99.90
16243;DHT22;11719;51.052;6.982;2022-12-18T09:51:24;2.10;99.90
16243;DHT22;11719;51.052;6.982;2022-12-18T09:54:00;2.70;99.90
16243;DHT22;11719;51.052;6.982;2022-12-18T09:56:30;3.40;99.90
16243;DHT22;11719;51.052;6.982;2022-12-18T09:58:59;3.70;99.90
16243;DHT22;11719;51.052;6.982;2022-12-18T10:01:27;4.20;99.90
16243;DHT22;11719;51.052;6.982;2022-12-18T10:03:54;4.70;99.90
16243;DHT22;11719;51.052;6.982;2022-12-18T10:09:21;5.40;99.90
16243;DHT22;11719;51.052;6.982;2022-12-18T10:12:28;6.00;99.90
16243;DHT22;11719;51.052;6.982;2022-12-18T10:21:14;6.40;97.60
16243;DHT22;11719;51.052;6.982;2022-12-18T10:23:58;6.10;98.90
16243;DHT22;11719;51.052;6.982;2022-12-18T10:26:34;6.50;98.80
16243;DHT22;11719;51.052;6.982;2022-12-18T10:29:00;6.90;96.90
16243;DHT22;11719;51.052;6.982;2022-12-18T10:31:26;7.00;96.80
16243;DHT22;11719;51.052;6.982;2022-12-18T10:33:55;6.90;95.80
16243;DHT22;11719;51.052;6.982;2022-12-18T10:36:23;6.90;95.30
16243;DHT22;11719;51.052;6.982;2022-12-18T10:38:49;7.10;96.10
16243;DHT22;11719;51.052;6.982;2022-12-18T10:43:46;6.80;95.40
16243;DHT22;11719;51.052;6.982;2022-12-18T10:46:15;6.90;96.90
16243;DHT22;11719;51.052;6.982;2022-12-18T10:51:40;6.40;97.00
16243;DHT22;11719;51.052;6.982;2022-12-18T10:54:20;7.00;97.40
16243;DHT22;11719;51.052;6.982;2022-12-18T10:56:48;7.60;95.30
16243;DHT22;11719;51.052;6.982;2022-12-18T10:59:16;7.60;94.70
16243;DHT22;11719;51.052;6.982;2022-12-18T11:01:57;7.60;93.80
16243;DHT22;11719;51.052;6.982;2022-12-18T11:04:24;7.20;97.30
16243;DHT22;11719;51.052;6.982;2022-12-18T11:07:00;7.70;96.10
16243;DHT22;11719;51.052;6.982;2022-12-18T11:09:30;7.80;96.70
16243;DHT22;11719;51.052;6.982;2022-12-18T11:12:08;8.30;95.90
16243;DHT22;11719;51.052;6.982;2022-12-18T11:17:19;7.50;96.30
16243;DHT22;11719;51.052;6.982;2022-12-18T11:20:00;7.90;95.00
16243;DHT22;11719;51.052;6.982;2022-12-18T11:22:29;8.20;93.10
16243;DHT22;11719;51.052;6.982;2022-12-18T11:25:02;8.60;94.50
16243;DHT22;11719;51.052;6.982;2022-12-18T11:27:31;8.70;93.80
16243;DHT22;11719;51.052;6.982;2022-12-18T11:35:49;6.90;94.00
16243;DHT22;11719;51.052;6.982;2022-12-18T11:38:37;6.20;95.00
16243;DHT22;11719;51.052;6.982;2022-12-18T11:44:54;5.80;96.30
16243;DHT22;11719;51.052;6.982;2022-12-18T11:47:57;7.10;99.80
16243;DHT22;11719;51.052;6.982;2022-12-18T11:53:17;8.60;94.60
16243;DHT22;11719;51.052;6.982;2022-12-18T12:01:55;9.40;92.60
16243;DHT22;11719;51.052;6.982;2022-12-18T12:20:06;8.60;93.00
16243;DHT22;11719;51.052;6.982;2022-12-18T12:22:47;8.90;95.10
16243;DHT22;11719;51.052;6.982;2022-12-18T12:25:41;9.30;94.10
16243;DHT22;11719;51.052;6.982;2022-12-18T12:39:46;9.70;91.10
16243;DHT22;11719;51.052;6.982;2022-12-18T12:46:06;9.90;88.10
16243;DHT22;11719;51.052;6.982;2022-12-18T12:48:49;9.90;89.40
16243;DHT22;11719;51.052;6.982;2022-12-18T12:51:34;9.60;91.90
16243;DHT22;11719;51.052;6.982;2022-12-18T12:54:11;10.20;93.40
16243;DHT22;11719;51.052;6.982;2022-12-18T12:56:54;10.40;91.10
16243;DHT22;11719;51.052;6.982;2022-12-18T13:09:05;9.80;92.80
16243;DHT22;11719;51.052;6.982;2022-12-18T13:11:43;9.70;91.90
16243;DHT22;11719;51.052;6.982;2022-12-18T13:20:03;10.10;88.30
16243;DHT22;11719;51.052;6.982;2022-12-18T13:22:51;10.20;92.40
16243;DHT22;11719;51.052;6.982;2022-12-18T13:25:37;10.40;90.70
16243;DHT22;11719;51.052;6.982;2022-12-18T13:28:12;10.60;90.70
16243;DHT22;11719;51.052;6.982;2022-12-18T13:30:55;11.30;92.00
16243;DHT22;11719;51.052;6.982;2022-12-18T13:39:08;11.00;90.10
16243;DHT22;11719;51.052;6.982;2022-12-18T13:41:41;11.00;86.10
16243;DHT22;11719;51.052;6.982;2022-12-18T13:46:56;11.00;91.70
16243;DHT22;11719;51.052;6.982;2022-12-18T13:52:24;11.60;88.80
16243;DHT22;11719;51.052;6.982;2022-12-18T13:54:54;11.60;89.00
16243;DHT22;11719;51.052;6.982;2022-12-18T13:59:56;12.00;90.00
16243;DHT22;11719;51.052;6.982;2022-12-18T14:02:27;12.10;89.30
16243;DHT22;11719;51.052;6.982;2022-12-18T14:04:54;12.20;89.70
16243;DHT22;11719;51.052;6.982;2022-12-18T14:07:26;12.10;87.60
16243;DHT22;11719;51.052;6.982;2022-12-18T14:09:58;12.20;87.90
16243;DHT22;11719;51.052;6.982;2022-12-18T14:12:31;12.10;87.30
16243;DHT22;11719;51.052;6.982;2022-12-18T14:17:57;11.90;82.60
16243;DHT22;11719;51.052;6.982;2022-12-18T14:20:28;11.80;86.80
16243;DHT22;11719;51.052;6.982;2022-12-18T14:22:56;11.80;84.80
16243;DHT22;11719;51.052;6.982;2022-12-18T14:25:24;11.70;87.90
16243;DHT22;11719;51.052;6.982;2022-12-18T14:28:13;12.00;89.20
16243;DHT22;11719;51.052;6.982;2022-12-18T14:30:42;11.90;89.10
16243;DHT22;11719;51.052;6.982;2022-12-18T14:35:59;12.30;84.50
16243;DHT22;11719;51.052;6.982;2022-12-18T14:41:04;12.30;88.90
16243;DHT22;11719;51.052;6.982;2022-12-18T14:43:45;12.20;87.30
16243;DHT22;11719;51.052;6.982;2022-12-18T14:46:44;12.30;90.10
16243;DHT22;11719;51.052;6.982;2022-12-18T14:49:27;12.60;90.10
16243;DHT22;11719;51.052;6.982;2022-12-18T14:52:06;12.40;85.10
16243;DHT22;11719;51.052;6.982;2022-12-18T14:54:38;12.30;89.20
16243;DHT22;11719;51.052;6.982;2022-12-18T14:57:37;12.30;87.30
16243;DHT22;11719;51.052;6.982;2022-12-18T15:00:16;12.20;86.50
16243;DHT22;11719;51.052;6.982;2022-12-18T15:02:46;11.90;88.50
16243;DHT22;11719;51.052;6.982;2022-12-18T15:05:24;12.00;90.30
16243;DHT22;11719;51.052;6.982;2022-12-18T15:07:57;12.40;89.10
16243;DHT22;11719;51.052;6.982;2022-12-18T15:10:32;12.10;83.70
16243;DHT22;11719;51.052;6.982;2022-12-18T15:20:50;11.80;88.20
16243;DHT22;11719;51.052;6.982;2022-12-18T15:26:13;10.90;86.80
16243;DHT22;11719;51.052;6.982;2022-12-18T15:28:54;10.90;83.10
16243;DHT22;11719;51.052;6.982;2022-12-18T15:31:24;10.90;90.80
16243;DHT22;11719;51.052;6.982;2022-12-18T15:34:12;10.80;84.10
16243;DHT22;11719;51.052;6.982;2022-12-18T15:36:41;10.80;89.50
16243;DHT22;11719;51.052;6.982;2022-12-18T15:39:11;10.80;90.90
16243;DHT22;11719;51.052;6.982;2022-12-18T15:41:38;11.00;87.20
16243;DHT22;11719;51.052;6.982;2022-12-18T15:44:22;10.90;87.10
16243;DHT22;11719;51.052;6.982;2022-12-18T15:46:49;11.10;91.20
16243;DHT22;11719;51.052;6.982;2022-12-18T15:49:14;11.50;89.90
16243;DHT22;11719;51.052;6.982;2022-12-18T15:51:40;11.40;89.80
16243;DHT22;11719;51.052;6.982;2022-12-18T15:54:11;11.10;90.90
16243;DHT22;11719;51.052;6.982;2022-12-18T15:56:39;11.10;88.70
16243;DHT22;11719;51.052;6.982;2022-12-18T15:59:24;11.50;90.90
16243;DHT22;11719;51.052;6.982;2022-12-18T16:01:51;11.20;87.50
16243;DHT22;11719;51.052;6.982;2022-12-18T16:04:21;11.20;84.80
16243;DHT22;11719;51.052;6.982;2022-12-18T16:06:48;10.90;88.50
16243;DHT22;11719;51.052;6.982;2022-12-18T16:09:15;11.00;90.80
16243;DHT22;11719;51.052;6.982;2022-12-18T16:11:43;11.20;87.50
16243;DHT22;11719;51.052;6.982;2022-12-18T16:16:52;10.80;91.00
16243;DHT22;11719;51.052;6.982;2022-12-18T16:19:19;10.60;87.10
16243;DHT22;11719;51.052;6.982;2022-12-18T16:21:46;10.20;87.10
16243;DHT22;11719;51.052;6.982;2022-12-18T16:24:24;10.50;91.60
16243;DHT22;11719;51.052;6.982;2022-12-18T16:26:53;10.70;89.70
16243;DHT22;11719;51.052;6.982;2022-12-18T16:29:23;10.40;81.90
16243;DHT22;11719;51.052;6.982;2022-12-18T16:31:55;10.10;88.50
16243;DHT22;11719;51.052;6.982;2022-12-18T16:34:24;9.60;91.50
16243;DHT22;11719;51.052;6.982;2022-12-18T16:37:01;9.90;93.10
16243;DHT22;11719;51.052;6.982;2022-12-18T16:39:31;10.10;92.30
16243;DHT22;11719;51.052;6.982;2022-12-18T16:41:59;10.10;91.60
16243;DHT22;11719;51.052;6.982;2022-12-18T16:44:26;10.30;89.50
16243;DHT22;11719;51.052;6.982;2022-12-18T16:46:52;10.40;87.90
16243;DHT22;11719;51.052;6.982;2022-12-18T16:49:18;10.20;89.80
16243;DHT22;11719;51.052;6.982;2022-12-18T16:51:47;9.90;91.30
16243;DHT22;11719;51.052;6.982;2022-12-18T16:54:13;9.90;90.90
16243;DHT22;11719;51.052;6.982;2022-12-18T16:56:40;10.30;93.10
16243;DHT22;11719;51.052;6.982;2022-12-18T16:59:07;10.30;91.90
16243;DHT22;11719;51.052;6.982;2022-12-18T17:01:35;10.70;91.90
16243;DHT22;11719;51.052;6.982;2022-12-18T17:04:04;11.10;90.80
16243;DHT22;11719;51.052;6.982;2022-12-18T17:06:33;11.40;89.10
16243;DHT22;11719;51.052;6.982;2022-12-18T17:09:03;11.30;87.40
16243;DHT22;11719;51.052;6.982;2022-12-18T17:11:32;11.10;90.60
16243;DHT22;11719;51.052;6.982;2022-12-18T17:13:59;10.40;84.10
16243;DHT22;11719;51.052;6.982;2022-12-18T17:16:25;10.10;91.80
16243;DHT22;11719;51.052;6.982;2022-12-18T17:18:52;10.20;89.20
16243;DHT22;11719;51.052;6.982;2022-12-18T17:21:19;10.40;87.50
16243;DHT22;11719;51.052;6.982;2022-12-18T17:23:45;10.30;89.20
16243;DHT22;11719;51.052;6.982;2022-12-18T17:26:11;10.30;90.70
16243;DHT22;11719;51.052;6.982;2022-12-18T17:28:39;10.70;92.40
16243;DHT22;11719;51.052;6.982;2022-12-18T17:33:38;10.90;90.10
16243;DHT22;11719;51.052;6.982;2022-12-18T17:36:04;11.40;89.70
16243;DHT22;11719;51.052;6.982;2022-12-18T17:38:30;11.40;89.30
16243;DHT22;11719;51.052;6.982;2022-12-18T17:41:07;11.50;85.10
16243;DHT22;11719;51.052;6.982;2022-12-18T17:43:34;11.20;82.00
16243;DHT22;11719;51.052;6.982;2022-12-18T17:46:02;10.40;85.20
16243;DHT22;11719;51.052;6.982;2022-12-18T17:48:29;10.60;91.40
16243;DHT22;11719;51.052;6.982;2022-12-18T17:50:54;10.90;85.30
16243;DHT22;11719;51.052;6.982;2022-12-18T17:53:29;10.70;87.50
16243;DHT22;11719;51.052;6.982;2022-12-18T17:55:56;9.90;92.50
16243;DHT22;11719;51.052;6.982;2022-12-18T17:58:24;10.00;85.00
16243;DHT22;11719;51.052;6.982;2022-12-18T18:00:50;10.00;91.50
16243;DHT22;11719;51.052;6.982;2022-12-18T18:03:16;10.20;93.00
16243;DHT22;11719;51.052;6.982;2022-12-18T18:05:41;9.80;88.70
16243;DHT22;11719;51.052;6.982;2022-12-18T18:08:10;9.40;91.50
16243;DHT22;11719;51.052;6.982;2022-12-18T18:10:37;9.50;92.40
16243;DHT22;11719;51.052;6.982;2022-12-18T18:13:05;9.80;89.80
16243;DHT22;11719;51.052;6.982;2022-12-18T18:15:57;9.50;88.90
16243;DHT22;11719;51.052;6.982;2022-12-18T18:18:23;9.50;91.10
16243;DHT22;11719;51.052;6.982;2022-12-18T18:20:49;9.50;92.30
16243;DHT22;11719;51.052;6.982;2022-12-18T18:23:15;9.50;92.60
16243;DHT22;11719;51.052;6.982;2022-12-18T18:25:41;9.80;91.30
16243;DHT22;11719;51.052;6.982;2022-12-18T18:28:07;9.60;93.00
16243;DHT22;11719;51.052;6.982;2022-12-18T18:30:34;10.30;93.40